createdAt,value
2018-07-01T00:00:55.930Z,1.00
2018-07-01T00:03:24.449Z,1.20
2018-07-01T00:05:53.816Z,1.10
2018-07-01T00:08:22.354Z,1.40
2018-07-01T00:10:50.929Z,1.30
2018-07-01T00:13:19.552Z,1.10
2018-07-01T00:15:48.362Z,1.00
2018-07-01T00:18:16.842Z,1.00
2018-07-01T00:20:46.026Z,1.10
2018-07-01T00:23:15.392Z,0.95
2018-07-01T00:25:44.205Z,0.90
2018-07-01T00:28:13.967Z,1.30
2018-07-01T00:30:43.196Z,1.15
2018-07-01T00:33:12.051Z,1.35
2018-07-01T00:35:40.858Z,1.32
2018-07-01T00:38:09.369Z,1.32
2018-07-01T00:40:38.547Z,1.40
2018-07-01T00:43:07.385Z,1.10
2018-07-01T00:45:35.888Z,1.30
2018-07-01T00:48:04.729Z,1.15
2018-07-01T00:50:34.035Z,1.10
2018-07-01T00:53:02.531Z,1.30
2018-07-01T00:55:31.374Z,1.00
2018-07-01T00:57:59.867Z,1.20
2018-07-01T01:00:31.665Z,1.50
2018-07-01T01:03:00.825Z,1.40
2018-07-01T01:05:29.336Z,1.40
2018-07-01T01:07:58.792Z,1.45
2018-07-01T01:10:27.478Z,1.72
2018-07-01T01:12:57.494Z,1.70
2018-07-01T01:15:26.340Z,1.07
2018-07-01T01:17:55.045Z,1.30
2018-07-01T01:20:23.890Z,1.10
2018-07-01T01:22:53.032Z,1.35
2018-07-01T01:25:21.505Z,1.30
2018-07-01T01:27:50.290Z,1.60
2018-07-01T01:30:19.479Z,1.32
2018-07-01T01:32:48.309Z,1.07
2018-07-01T01:35:17.143Z,1.07
2018-07-01T01:37:45.996Z,1.05
2018-07-01T01:40:17.883Z,1.40
2018-07-01T01:42:50.333Z,1.00
2018-07-01T01:45:24.333Z,1.00
2018-07-01T01:47:59.177Z,1.00
2018-07-01T01:51:03.321Z,1.00
2018-07-01T01:54:36.277Z,1.10
2018-07-01T01:57:12.858Z,1.10
2018-07-01T01:59:47.073Z,1.05
2018-07-01T02:02:22.829Z,0.90
2018-07-01T02:05:26.228Z,1.30
2018-07-01T02:07:58.937Z,1.15
2018-07-01T02:10:28.161Z,1.35
2018-07-01T02:12:56.674Z,1.35
2018-07-01T02:15:29.172Z,1.40
2018-07-01T02:17:57.669Z,1.65
2018-07-01T02:20:29.196Z,1.40
2018-07-01T02:23:04.977Z,1.55
2018-07-01T02:25:35.389Z,1.30
2018-07-01T02:28:03.866Z,1.30
2018-07-01T02:30:33.865Z,1.37
2018-07-01T02:33:02.690Z,1.87
2018-07-01T02:35:31.580Z,1.62
2018-07-01T02:38:01.049Z,1.57
2018-07-01T02:40:30.157Z,1.80
2018-07-01T02:42:58.792Z,1.62
2018-07-01T02:45:27.796Z,1.90
2018-07-01T02:47:56.302Z,1.42
2018-07-01T02:50:25.453Z,1.90
2018-07-01T02:52:54.282Z,1.70
2018-07-01T02:55:23.113Z,1.80
2018-07-01T02:57:52.182Z,1.90
2018-07-01T03:00:20.684Z,1.45
2018-07-01T03:02:49.549Z,1.40
2018-07-01T03:05:18.607Z,2.05
2018-07-01T03:07:47.115Z,1.82
2018-07-01T03:10:16.334Z,1.82
2018-07-01T03:12:45.177Z,2.15
2018-07-01T03:15:13.672Z,2.00
2018-07-01T03:17:42.497Z,1.98
2018-07-01T03:20:11.352Z,1.85
2018-07-01T03:22:40.182Z,2.15
2018-07-01T03:25:08.698Z,1.85
2018-07-01T03:27:37.269Z,1.80
2018-07-01T03:30:06.121Z,1.98
2018-07-01T03:32:35.736Z,1.80
2018-07-01T03:35:04.582Z,1.90
2018-07-01T03:37:33.443Z,2.20
2018-07-01T03:40:03.161Z,2.05
2018-07-01T03:42:32.557Z,1.70
2018-07-01T03:45:01.081Z,1.65
2018-07-01T03:47:29.975Z,1.70
2018-07-01T03:49:58.501Z,2.22
2018-07-01T03:52:27.330Z,1.98
2018-07-01T03:54:56.170Z,2.08
2018-07-01T03:57:25.686Z,1.90
2018-07-01T03:59:54.197Z,1.80
2018-07-01T04:02:22.686Z,2.60
2018-07-01T04:04:51.521Z,1.87
2018-07-01T04:07:20.041Z,1.55
2018-07-01T04:09:49.206Z,2.12
2018-07-01T04:12:18.709Z,2.40
2018-07-01T04:14:47.197Z,1.95
2018-07-01T04:17:16.023Z,1.80
2018-07-01T04:19:45.205Z,1.65
2018-07-01T04:22:13.715Z,2.00
2018-07-01T04:24:42.232Z,1.90
2018-07-01T04:27:11.397Z,1.50
2018-07-01T04:29:40.225Z,2.12
2018-07-01T04:32:08.721Z,1.62
2018-07-01T04:34:37.197Z,1.95
2018-07-01T04:37:06.389Z,1.92
2018-07-01T04:39:35.540Z,2.00
2018-07-01T04:42:04.726Z,1.60
2018-07-01T04:44:33.246Z,1.62
2018-07-01T04:47:02.405Z,1.40
2018-07-01T04:49:31.240Z,2.42
2018-07-01T04:52:00.061Z,1.75
2018-07-01T04:54:28.906Z,1.80
2018-07-01T04:56:57.395Z,2.83
2018-07-01T04:59:25.908Z,1.20
2018-07-01T05:01:54.483Z,1.70
2018-07-01T05:04:23.103Z,1.90
2018-07-01T05:06:51.926Z,1.62
2018-07-01T05:09:20.773Z,2.00
2018-07-01T05:11:49.287Z,1.37
2018-07-01T05:14:19.072Z,1.62
2018-07-01T05:16:47.896Z,1.52
2018-07-01T05:19:16.725Z,1.45
2018-07-01T05:21:45.210Z,1.47
2018-07-01T05:24:14.074Z,1.60
2018-07-01T05:26:42.923Z,2.00
2018-07-01T05:29:11.407Z,1.57
2018-07-01T05:31:39.892Z,1.60
2018-07-01T05:34:08.397Z,1.47
2018-07-01T05:36:36.880Z,1.32
2018-07-01T05:39:08.861Z,1.50
2018-07-01T05:41:37.694Z,1.55
2018-07-01T05:44:06.297Z,1.35
2018-07-01T05:46:35.809Z,1.50
2018-07-01T05:49:04.613Z,1.37
2018-07-01T05:51:33.290Z,1.40
2018-07-01T05:54:02.494Z,1.80
2018-07-01T05:56:32.300Z,1.55
2018-07-01T05:59:01.474Z,1.30
2018-07-01T06:01:30.642Z,1.45
2018-07-01T06:03:59.124Z,1.72
2018-07-01T06:06:27.640Z,1.45
2018-07-01T06:08:56.338Z,1.60
2018-07-01T06:11:24.826Z,1.00
2018-07-01T06:13:53.534Z,1.20
2018-07-01T06:16:22.430Z,1.50
2018-07-01T06:18:51.081Z,1.20
2018-07-01T06:21:20.231Z,1.02
2018-07-01T06:23:48.735Z,0.80
2018-07-01T06:26:17.907Z,0.95
2018-07-01T06:28:46.743Z,1.10
2018-07-01T06:31:16.156Z,1.20
2018-07-01T06:33:44.665Z,1.72
2018-07-01T06:36:13.169Z,1.32
2018-07-01T06:38:42.362Z,0.82
2018-07-01T06:41:11.229Z,0.75
2018-07-01T06:43:40.859Z,0.80
2018-07-01T06:46:09.721Z,0.85
2018-07-01T06:48:38.224Z,0.80
2018-07-01T06:51:07.508Z,1.00
2018-07-01T06:53:36.636Z,0.90
2018-07-01T06:56:05.279Z,0.80
2018-07-01T06:58:34.789Z,0.60
2018-07-01T07:01:03.250Z,1.85
2018-07-01T07:03:32.587Z,0.98
2018-07-01T07:06:01.075Z,1.50
2018-07-01T07:08:29.889Z,1.60
2018-07-01T07:10:58.348Z,1.30
2018-07-01T07:13:26.841Z,0.90
2018-07-01T07:15:55.703Z,0.70
2018-07-01T07:18:24.634Z,1.17
2018-07-01T07:20:53.157Z,0.70
2018-07-01T07:23:22.015Z,0.50
2018-07-01T07:25:50.782Z,0.50
2018-07-01T07:28:19.854Z,0.65
2018-07-01T07:30:48.349Z,0.55
2018-07-01T07:33:16.859Z,0.75
2018-07-01T07:35:45.382Z,0.68
2018-07-01T07:38:14.482Z,0.60
2018-07-01T07:40:43.300Z,0.50
2018-07-01T07:43:12.701Z,0.62
2018-07-01T07:45:41.868Z,0.70
2018-07-01T07:48:10.368Z,0.70
2018-07-01T07:50:38.864Z,0.60
2018-07-01T07:53:08.005Z,0.70
2018-07-01T07:55:36.538Z,0.90
2018-07-01T07:58:05.402Z,0.50
2018-07-01T08:00:33.944Z,0.85
2018-07-01T08:03:03.416Z,0.95
2018-07-01T08:05:35.074Z,0.50
2018-07-01T08:08:03.617Z,0.70
2018-07-01T08:10:32.441Z,0.60
2018-07-01T08:13:01.297Z,0.70
2018-07-01T08:15:31.258Z,0.70
2018-07-01T08:18:00.098Z,0.75
2018-07-01T08:20:28.965Z,0.80
2018-07-01T08:22:57.876Z,0.55
2018-07-01T08:25:26.898Z,0.60
2018-07-01T08:27:56.104Z,0.70
2018-07-01T08:30:24.600Z,0.70
2018-07-01T08:32:53.114Z,1.02
2018-07-01T08:35:22.300Z,0.82
2018-07-01T08:37:50.797Z,0.90
2018-07-01T08:40:20.155Z,0.60
2018-07-01T08:42:49.044Z,0.60
2018-07-01T08:45:17.742Z,0.65
2018-07-01T08:47:46.245Z,0.70
2018-07-01T08:50:14.741Z,0.80
2018-07-01T08:52:43.352Z,0.70
2018-07-01T08:55:12.046Z,0.70
2018-07-01T08:57:41.562Z,0.68
2018-07-01T09:00:10.085Z,0.82
2018-07-01T09:02:38.799Z,0.78
2018-07-01T09:05:07.627Z,0.65
2018-07-01T09:07:36.099Z,0.57
2018-07-01T09:10:06.069Z,0.70
2018-07-01T09:12:36.124Z,0.70
2018-07-01T09:15:05.867Z,0.70
2018-07-01T09:17:34.423Z,0.88
2018-07-01T09:20:03.726Z,0.60
2018-07-01T09:22:32.581Z,0.90
2018-07-01T09:25:01.348Z,0.80
2018-07-01T09:27:30.848Z,0.90
2018-07-01T09:29:59.757Z,0.60
2018-07-01T09:32:28.730Z,0.60
2018-07-01T09:34:58.735Z,0.60
2018-07-01T09:37:28.422Z,0.45
2018-07-01T09:39:56.970Z,0.55
2018-07-01T09:42:26.853Z,0.50
2018-07-01T09:44:57.033Z,0.82
2018-07-01T09:47:25.546Z,0.65
2018-07-01T09:49:54.393Z,0.90
2018-07-01T09:52:23.838Z,0.50
2018-07-01T09:54:52.662Z,0.98
2018-07-01T09:57:21.498Z,0.70
2018-07-01T09:59:51.857Z,0.70
2018-07-01T10:02:20.718Z,0.62
2018-07-01T10:04:49.922Z,0.62
2018-07-01T10:34:44.824Z,0.50
2018-07-01T10:37:13.661Z,0.60
2018-07-01T10:39:42.928Z,0.85
2018-07-01T10:42:12.313Z,0.55
2018-07-01T10:44:41.804Z,0.80
2018-07-01T10:47:10.623Z,0.70
2018-07-01T10:49:39.114Z,0.70
2018-07-01T10:52:07.950Z,0.65
2018-07-01T10:54:37.170Z,0.78
2018-07-01T10:57:06.305Z,0.70
2018-07-01T10:59:35.134Z,0.55
2018-07-01T11:02:03.674Z,0.50
2018-07-01T11:04:32.186Z,0.50
2018-07-01T11:07:01.389Z,0.95
2018-07-01T11:09:31.238Z,0.75
2018-07-01T11:11:59.758Z,0.62
2018-07-01T11:14:28.272Z,0.60
2018-07-01T11:16:57.130Z,1.02
2018-07-01T11:19:28.279Z,0.40
2018-07-01T11:21:57.111Z,0.40
2018-07-01T11:24:26.812Z,0.60
2018-07-01T11:26:55.489Z,0.80
2018-07-01T11:29:25.934Z,0.57
2018-07-01T11:31:54.405Z,0.70
2018-07-01T11:34:22.922Z,0.50
2018-07-01T11:36:52.093Z,0.50
2018-07-01T11:39:21.256Z,0.50
2018-07-01T11:41:49.772Z,0.70
2018-07-01T11:44:18.633Z,0.50
2018-07-01T11:46:48.013Z,0.70
2018-07-01T12:19:25.661Z,0.40
2018-07-01T12:21:54.205Z,0.55
2018-07-01T12:24:24.268Z,0.50
2018-07-01T12:26:53.341Z,0.40
2018-07-01T12:29:25.235Z,0.60
2018-07-01T12:31:53.943Z,0.60
2018-07-01T12:34:23.571Z,0.70
2018-07-01T12:36:52.444Z,0.45
2018-07-01T12:44:20.940Z,0.40
2018-07-01T12:46:49.800Z,0.50
2018-07-01T12:49:18.626Z,0.60
2018-07-01T12:51:47.125Z,0.50
2018-07-01T12:54:15.685Z,0.50
2018-07-01T12:56:44.564Z,0.70
2018-07-01T12:59:13.420Z,0.62
2018-07-01T13:01:42.148Z,0.50
2018-07-01T13:04:10.733Z,0.93
2018-07-01T13:06:39.922Z,0.60
2018-07-01T13:09:10.905Z,0.40
2018-07-01T13:11:39.848Z,0.50
2018-07-01T13:14:08.972Z,0.90
2018-07-01T13:16:37.868Z,0.40
2018-07-01T13:19:07.601Z,0.50
2018-07-01T13:21:36.520Z,0.50
2018-07-01T13:24:05.421Z,0.50
2018-07-01T13:26:34.747Z,0.50
2018-07-01T13:29:05.388Z,0.60
2018-07-01T13:31:34.205Z,0.47
2018-07-01T13:34:05.285Z,0.50
2018-07-01T13:36:34.923Z,0.50
2018-07-01T13:39:08.533Z,0.82
2018-07-01T13:41:38.724Z,0.70
2018-07-01T13:44:07.905Z,0.60
2018-07-01T13:46:37.611Z,0.60
2018-07-01T13:52:07.675Z,0.50
2018-07-01T13:54:41.204Z,0.50
2018-07-01T13:57:10.120Z,0.70
2018-07-01T13:59:40.054Z,0.42
2018-07-01T14:02:12.566Z,0.80
2018-07-01T14:04:41.293Z,0.80
2018-07-01T14:07:10.187Z,0.68
2018-07-01T14:09:38.773Z,0.62
2018-07-01T14:12:07.424Z,0.60
2018-07-01T14:14:37.109Z,0.40
2018-07-01T14:17:11.719Z,0.50
2018-07-01T14:19:40.591Z,0.42
2018-07-01T14:22:10.724Z,0.50
2018-07-01T14:24:39.575Z,0.47
2018-07-01T14:27:08.521Z,0.60
2018-07-01T14:29:37.219Z,0.70
2018-07-01T14:32:05.900Z,0.57
2018-07-01T14:37:12.630Z,0.50
2018-07-01T14:39:41.445Z,0.60
2018-07-01T14:42:11.106Z,0.50
2018-07-01T14:44:40.018Z,0.70
2018-07-01T14:47:16.334Z,0.50
2018-07-01T14:49:45.088Z,0.70
2018-07-01T14:52:14.873Z,0.50
2018-07-01T14:54:43.385Z,0.60
2018-07-01T14:57:12.626Z,0.40
2018-07-01T14:59:41.589Z,0.68
2018-07-01T15:02:10.093Z,0.50
2018-07-01T15:04:38.822Z,0.50
2018-07-01T15:07:08.537Z,0.50
2018-07-01T15:09:37.730Z,0.80
2018-07-01T15:12:06.240Z,0.40
2018-07-01T15:14:35.129Z,0.60
2018-07-01T15:17:03.652Z,0.45
2018-07-01T15:19:33.762Z,0.50
2018-07-01T15:22:02.271Z,0.60
2018-07-01T15:24:31.002Z,0.60
2018-07-01T15:27:00.180Z,0.40
2018-07-01T15:29:28.732Z,0.70
2018-07-01T15:31:57.928Z,0.60
2018-07-01T15:34:27.277Z,0.57
2018-07-01T15:36:57.017Z,0.60
2018-07-01T15:39:26.140Z,0.60
2018-07-01T15:41:56.017Z,0.60
2018-07-01T15:44:24.919Z,0.50
2018-07-01T15:46:53.760Z,0.70
2018-07-01T15:49:23.119Z,0.47
2018-07-01T15:51:52.532Z,0.65
2018-07-01T15:54:22.109Z,0.65
2018-07-01T15:56:50.916Z,0.45
2018-07-01T15:59:19.784Z,1.00
2018-07-01T16:01:49.980Z,0.72
2018-07-01T16:04:19.075Z,0.60
2018-07-01T16:06:48.247Z,0.78
2018-07-01T16:09:18.172Z,0.70
2018-07-01T16:11:47.019Z,0.75
2018-07-01T16:14:15.661Z,0.80
2018-07-01T16:16:44.145Z,0.60
2018-07-01T16:19:12.849Z,0.50
2018-07-01T16:21:41.665Z,0.80
2018-07-01T16:24:10.509Z,0.50
2018-07-01T16:26:44.441Z,0.95
2018-07-01T16:29:12.945Z,0.53
2018-07-01T16:31:42.808Z,0.65
2018-07-01T16:34:11.334Z,1.00
2018-07-01T16:36:40.561Z,0.60
2018-07-01T16:39:10.494Z,0.70
2018-07-01T16:41:39.132Z,0.70
2018-07-01T16:44:07.995Z,0.50
2018-07-01T16:46:36.670Z,0.60
2018-07-01T16:49:05.247Z,0.50
2018-07-01T16:51:33.729Z,0.40
2018-07-01T16:54:02.905Z,0.80
2018-07-01T16:56:31.749Z,1.02
2018-07-01T16:59:00.582Z,0.60
2018-07-01T17:01:29.289Z,0.80
2018-07-01T17:03:57.760Z,0.50
2018-07-01T17:06:26.889Z,0.85
2018-07-01T17:08:55.701Z,0.70
2018-07-01T17:11:24.532Z,0.70
2018-07-01T17:13:53.050Z,0.60
2018-07-01T17:16:21.901Z,0.53
2018-07-01T17:18:50.393Z,0.57
2018-07-01T17:21:19.338Z,1.17
2018-07-01T17:23:47.860Z,0.60
2018-07-01T17:26:16.993Z,0.50
2018-07-01T17:28:45.501Z,0.62
2018-07-01T17:31:20.230Z,0.72
2018-07-01T17:33:49.016Z,0.68
2018-07-01T17:36:17.529Z,0.50
2018-07-01T17:38:46.021Z,0.60
2018-07-01T17:41:14.562Z,0.70
2018-07-01T17:43:43.837Z,1.00
2018-07-01T17:46:13.243Z,0.70
2018-07-01T17:48:42.901Z,0.75
2018-07-01T17:51:11.793Z,0.78
2018-07-01T17:53:55.467Z,0.60
2018-07-01T17:56:24.543Z,0.50
2018-07-01T17:58:54.210Z,0.50
2018-07-01T18:01:23.565Z,0.70
2018-07-01T18:03:52.088Z,0.90
2018-07-01T18:06:20.925Z,0.70
2018-07-01T18:08:51.113Z,0.60
2018-07-01T18:11:20.421Z,0.60
2018-07-01T18:13:49.283Z,0.70
2018-07-01T18:16:18.528Z,0.62
2018-07-01T18:18:47.625Z,0.60
2018-07-01T18:21:20.254Z,0.65
2018-07-01T18:26:25.612Z,0.70
2018-07-01T18:29:05.469Z,0.70
2018-07-01T18:34:03.257Z,1.00
2018-07-01T18:36:36.008Z,0.95
2018-07-01T18:39:09.107Z,0.62
2018-07-01T18:41:39.221Z,0.60
2018-07-01T18:44:07.876Z,0.70
2018-07-01T18:46:37.498Z,0.80
2018-07-01T18:49:07.618Z,0.90
2018-07-01T18:51:37.218Z,0.60
2018-07-01T18:54:07.090Z,0.65
2018-07-01T18:56:35.722Z,0.80
2018-07-01T18:59:04.752Z,0.72
2018-07-01T19:01:33.304Z,0.88
2018-07-01T19:04:02.538Z,1.00
2018-07-01T19:06:31.150Z,0.60
2018-07-01T19:09:00.446Z,0.72
2018-07-01T19:11:29.387Z,0.80
2018-07-01T19:14:00.067Z,0.65
2018-07-01T19:16:30.027Z,0.95
2018-07-01T19:18:58.633Z,0.78
2018-07-01T19:21:29.442Z,0.90
2018-07-01T19:23:59.107Z,1.35
2018-07-01T19:26:28.884Z,1.00
2018-07-01T19:28:58.500Z,1.25
2018-07-01T19:31:29.502Z,1.02
2018-07-01T19:33:59.495Z,0.80
2018-07-01T19:36:28.753Z,1.30
2018-07-01T19:38:57.384Z,1.02
2018-07-01T19:41:26.302Z,1.27
2018-07-01T19:43:54.933Z,1.20
2018-07-01T19:46:23.981Z,1.00
2018-07-01T19:48:52.487Z,1.35
2018-07-01T19:51:21.360Z,1.80
2018-07-01T19:53:50.307Z,1.30
2018-07-01T19:56:19.135Z,2.25
2018-07-01T19:58:47.721Z,1.90
2018-07-01T20:01:16.244Z,1.90
2018-07-01T20:03:45.981Z,1.80
2018-07-01T20:06:15.313Z,2.87
2018-07-01T20:08:45.234Z,2.50
2018-07-01T20:11:13.766Z,1.72
2018-07-01T20:13:43.216Z,1.75
2018-07-01T20:16:12.231Z,1.77
2018-07-01T20:18:40.939Z,1.57
2018-07-01T20:21:09.466Z,1.35
2018-07-01T20:23:38.021Z,1.92
2018-07-01T20:26:07.277Z,1.87
2018-07-01T20:28:36.449Z,1.75
2018-07-01T20:31:05.382Z,1.55
2018-07-01T20:33:34.078Z,1.52
2018-07-01T20:36:03.319Z,1.50
2018-07-01T20:38:32.391Z,2.20
2018-07-01T20:41:01.285Z,1.80
2018-07-01T20:43:30.420Z,2.50
2018-07-01T20:45:59.685Z,1.67
2018-07-01T20:48:28.281Z,1.37
2018-07-01T20:50:57.525Z,1.75
2018-07-01T20:53:27.152Z,1.62
2018-07-01T20:55:55.669Z,1.80
2018-07-01T20:58:24.482Z,1.30
2018-07-01T21:00:53.352Z,1.00
2018-07-01T21:03:22.201Z,1.40
2018-07-01T21:05:51.234Z,1.62
2018-07-01T21:08:19.752Z,1.60
2018-07-01T21:10:48.241Z,1.40
2018-07-01T21:13:17.549Z,1.75
2018-07-01T21:15:46.394Z,1.30
2018-07-01T21:18:16.661Z,3.85
2018-07-01T21:20:45.829Z,2.27
2018-07-01T21:23:14.668Z,1.87
2018-07-01T21:25:43.586Z,1.65
2018-07-01T21:28:13.486Z,2.45
2018-07-01T21:30:43.276Z,2.30
2018-07-01T21:33:12.441Z,1.60
2018-07-01T21:35:43.049Z,1.70
2018-07-01T21:38:12.049Z,1.80
2018-07-01T21:40:41.121Z,1.85
2018-07-01T21:43:09.798Z,2.10
2018-07-01T21:45:38.924Z,2.30
2018-07-01T21:50:47.288Z,1.85
2018-07-01T21:53:15.976Z,2.10
2018-07-01T21:55:45.756Z,2.30
2018-07-01T21:58:14.789Z,2.05
2018-07-01T22:00:43.523Z,2.15
2018-07-01T22:03:12.177Z,2.30
2018-07-01T22:05:40.869Z,1.90
2018-07-01T22:08:10.253Z,2.22
2018-07-01T22:10:50.308Z,2.05
2018-07-01T22:14:35.233Z,2.40
2018-07-01T22:17:05.158Z,2.12
2018-07-01T22:19:34.462Z,2.47
2018-07-01T22:22:03.329Z,2.20
2018-07-01T22:24:35.301Z,1.85
2018-07-01T22:27:04.033Z,2.30
2018-07-01T22:29:33.053Z,2.05
2018-07-01T22:32:01.765Z,3.25
2018-07-01T22:34:30.468Z,1.72
2018-07-01T22:36:59.249Z,1.72
2018-07-01T22:39:30.213Z,2.10
2018-07-01T22:42:00.010Z,1.90
2018-07-01T22:44:29.401Z,1.70
2018-07-01T22:46:58.791Z,1.82
2018-07-01T22:49:28.006Z,1.80
2018-07-01T22:51:56.469Z,1.82
2018-07-01T22:54:25.481Z,1.30
2018-07-01T22:56:54.819Z,2.20
2018-07-01T22:59:23.879Z,1.75
2018-07-01T23:03:13.505Z,1.57
2018-07-01T23:05:42.319Z,1.50
2018-07-01T23:08:11.007Z,1.50
2018-07-01T23:10:40.351Z,1.60
2018-07-01T23:13:09.750Z,1.80
2018-07-01T23:15:38.432Z,2.90
2018-07-01T23:18:07.108Z,1.62
2018-07-01T23:20:36.116Z,1.42
2018-07-01T23:23:04.807Z,1.70
2018-07-01T23:25:33.821Z,1.62
2018-07-01T23:28:02.845Z,1.85
2018-07-01T23:30:31.547Z,1.42
2018-07-01T23:33:00.574Z,1.72
2018-07-01T23:35:29.248Z,1.50
2018-07-01T23:37:57.941Z,1.40
2018-07-01T23:40:27.033Z,1.57
2018-07-01T23:42:55.714Z,1.80
2018-07-01T23:45:24.402Z,1.50
2018-07-01T23:47:53.421Z,1.62
2018-07-01T23:50:22.438Z,1.55
2018-07-01T23:52:52.084Z,1.75
2018-07-01T23:55:21.102Z,1.50
2018-07-01T23:57:50.096Z,1.72
